Berlin, Michigan
Current Conditions -  °F | °C
As of 5:13 PM on Monday 26 Jan 2015 (Local Time) from KD95 Reporting Station
Clear Clear  
Wind Chill: 11°   Ceiling: Unl
Heat Index: 19°   Visibility: 10mi
Dew Point: 11°   Wind: 6mph
Humidity: 71%   Direction: 50°NE
Pressure: 29.92"   Gusts: NA
Location:  42.9384°N, 82.9255°W
Report Text: KD95 262213Z AUTO 05005KT 10SM CLR M07/M11 A2992 RMK AO2 T10711115
Loading
Personal Weather Stations






























Interactive Weather Map New forecast layout! Learn more

10-Day Weather Forecast

Advertisements
Track Severe Weather on mobile